sensor_id;sensor_type;location;lat;lon;timestamp;P1;durP1;ratioP1;P2;durP2;ratioP2
12024;SDS011;6073;53.230;10.444;2024-01-16T00:01:05;4.95;;;3.45;;
12024;SDS011;6073;53.230;10.444;2024-01-16T00:03:31;5.05;;;3.92;;
12024;SDS011;6073;53.230;10.444;2024-01-16T00:05:57;7.05;;;3.63;;
12024;SDS011;6073;53.230;10.444;2024-01-16T00:08:23;5.95;;;3.70;;
12024;SDS011;6073;53.230;10.444;2024-01-16T00:10:48;5.25;;;3.58;;
12024;SDS011;6073;53.230;10.444;2024-01-16T00:13:15;6.30;;;4.47;;
12024;SDS011;6073;53.230;10.444;2024-01-16T00:15:40;5.68;;;4.10;;
12024;SDS011;6073;53.230;10.444;2024-01-16T00:18:09;5.90;;;3.80;;
12024;SDS011;6073;53.230;10.444;2024-01-16T00:20:34;5.80;;;3.85;;
12024;SDS011;6073;53.230;10.444;2024-01-16T00:23:00;5.97;;;3.92;;
12024;SDS011;6073;53.230;10.444;2024-01-16T00:25:26;7.15;;;4.45;;
12024;SDS011;6073;53.230;10.444;2024-01-16T00:27:52;5.03;;;3.53;;
12024;SDS011;6073;53.230;10.444;2024-01-16T00:30:17;5.00;;;3.60;;
12024;SDS011;6073;53.230;10.444;2024-01-16T00:32:43;7.47;;;4.68;;
12024;SDS011;6073;53.230;10.444;2024-01-16T00:35:09;4.55;;;4.10;;
12024;SDS011;6073;53.230;10.444;2024-01-16T00:37:38;5.75;;;4.35;;
12024;SDS011;6073;53.230;10.444;2024-01-16T00:40:04;5.47;;;3.80;;
12024;SDS011;6073;53.230;10.444;2024-01-16T00:42:31;5.57;;;4.07;;
12024;SDS011;6073;53.230;10.444;2024-01-16T00:44:57;5.95;;;4.18;;
12024;SDS011;6073;53.230;10.444;2024-01-16T00:47:23;6.25;;;3.83;;
12024;SDS011;6073;53.230;10.444;2024-01-16T00:49:49;8.15;;;4.15;;
12024;SDS011;6073;53.230;10.444;2024-01-16T00:52:14;7.07;;;3.75;;
12024;SDS011;6073;53.230;10.444;2024-01-16T00:54:40;5.18;;;3.90;;
12024;SDS011;6073;53.230;10.444;2024-01-16T00:57:06;6.78;;;4.07;;
12024;SDS011;6073;53.230;10.444;2024-01-16T00:59:32;4.82;;;3.83;;
12024;SDS011;6073;53.230;10.444;2024-01-16T01:01:58;5.65;;;4.35;;
12024;SDS011;6073;53.230;10.444;2024-01-16T01:04:23;5.70;;;3.95;;
12024;SDS011;6073;53.230;10.444;2024-01-16T01:06:49;7.70;;;4.00;;
12024;SDS011;6073;53.230;10.444;2024-01-16T01:09:15;5.70;;;4.07;;
12024;SDS011;6073;53.230;10.444;2024-01-16T01:11:41;5.65;;;4.47;;
12024;SDS011;6073;53.230;10.444;2024-01-16T01:14:06;8.18;;;4.53;;
12024;SDS011;6073;53.230;10.444;2024-01-16T01:16:32;5.93;;;4.13;;
12024;SDS011;6073;53.230;10.444;2024-01-16T01:18:58;5.88;;;4.20;;
12024;SDS011;6073;53.230;10.444;2024-01-16T01:21:23;7.63;;;4.47;;
12024;SDS011;6073;53.230;10.444;2024-01-16T01:23:49;8.55;;;4.60;;
12024;SDS011;6073;53.230;10.444;2024-01-16T01:26:14;7.53;;;4.13;;
12024;SDS011;6073;53.230;10.444;2024-01-16T01:28:42;6.18;;;4.63;;
12024;SDS011;6073;53.230;10.444;2024-01-16T01:31:09;5.72;;;4.40;;
12024;SDS011;6073;53.230;10.444;2024-01-16T01:33:35;6.40;;;4.28;;
12024;SDS011;6073;53.230;10.444;2024-01-16T01:36:01;6.20;;;4.28;;
12024;SDS011;6073;53.230;10.444;2024-01-16T01:38:26;7.97;;;4.88;;
12024;SDS011;6073;53.230;10.444;2024-01-16T01:40:52;8.77;;;5.40;;
12024;SDS011;6073;53.230;10.444;2024-01-16T01:45:51;8.90;;;5.05;;
12024;SDS011;6073;53.230;10.444;2024-01-16T01:48:40;7.15;;;4.80;;
12024;SDS011;6073;53.230;10.444;2024-01-16T01:51:06;7.30;;;5.60;;
12024;SDS011;6073;53.230;10.444;2024-01-16T01:53:33;8.32;;;5.78;;
12024;SDS011;6073;53.230;10.444;2024-01-16T01:56:01;7.10;;;4.93;;
12024;SDS011;6073;53.230;10.444;2024-01-16T01:58:30;6.65;;;4.93;;
12024;SDS011;6073;53.230;10.444;2024-01-16T02:00:57;5.63;;;4.82;;
12024;SDS011;6073;53.230;10.444;2024-01-16T02:03:23;8.02;;;5.20;;
12024;SDS011;6073;53.230;10.444;2024-01-16T02:05:53;7.30;;;4.93;;
12024;SDS011;6073;53.230;10.444;2024-01-16T02:08:18;7.20;;;5.05;;
12024;SDS011;6073;53.230;10.444;2024-01-16T02:10:45;6.05;;;4.72;;
12024;SDS011;6073;53.230;10.444;2024-01-16T02:13:12;8.23;;;4.72;;
12024;SDS011;6073;53.230;10.444;2024-01-16T02:15:38;7.15;;;4.57;;
12024;SDS011;6073;53.230;10.444;2024-01-16T02:18:06;5.95;;;4.40;;
12024;SDS011;6073;53.230;10.444;2024-01-16T02:20:32;5.55;;;3.75;;
12024;SDS011;6073;53.230;10.444;2024-01-16T02:22:57;6.30;;;4.22;;
12024;SDS011;6073;53.230;10.444;2024-01-16T02:25:28;7.97;;;4.00;;
12024;SDS011;6073;53.230;10.444;2024-01-16T02:27:53;5.95;;;4.20;;
12024;SDS011;6073;53.230;10.444;2024-01-16T02:30:19;6.32;;;4.15;;
12024;SDS011;6073;53.230;10.444;2024-01-16T02:32:44;6.22;;;4.00;;
12024;SDS011;6073;53.230;10.444;2024-01-16T02:35:10;4.88;;;3.50;;
12024;SDS011;6073;53.230;10.444;2024-01-16T02:37:36;9.10;;;3.72;;
12024;SDS011;6073;53.230;10.444;2024-01-16T02:40:01;5.95;;;3.90;;
12024;SDS011;6073;53.230;10.444;2024-01-16T02:42:31;6.15;;;3.72;;
12024;SDS011;6073;53.230;10.444;2024-01-16T02:44:59;5.97;;;3.70;;
12024;SDS011;6073;53.230;10.444;2024-01-16T02:47:25;5.93;;;3.85;;
12024;SDS011;6073;53.230;10.444;2024-01-16T02:49:50;4.60;;;3.70;;
12024;SDS011;6073;53.230;10.444;2024-01-16T02:52:16;6.53;;;3.97;;
12024;SDS011;6073;53.230;10.444;2024-01-16T02:54:41;5.15;;;3.63;;
12024;SDS011;6073;53.230;10.444;2024-01-16T02:57:07;4.28;;;3.47;;
12024;SDS011;6073;53.230;10.444;2024-01-16T02:59:33;4.72;;;3.70;;
12024;SDS011;6073;53.230;10.444;2024-01-16T03:01:59;6.63;;;4.38;;
12024;SDS011;6073;53.230;10.444;2024-01-16T03:04:24;5.50;;;3.85;;
12024;SDS011;6073;53.230;10.444;2024-01-16T03:06:50;5.10;;;3.60;;
12024;SDS011;6073;53.230;10.444;2024-01-16T03:09:15;4.78;;;3.92;;
12024;SDS011;6073;53.230;10.444;2024-01-16T03:11:41;6.07;;;4.28;;
12024;SDS011;6073;53.230;10.444;2024-01-16T03:14:07;5.68;;;3.70;;
12024;SDS011;6073;53.230;10.444;2024-01-16T03:16:32;5.65;;;4.00;;
12024;SDS011;6073;53.230;10.444;2024-01-16T03:18:58;5.88;;;4.10;;
12024;SDS011;6073;53.230;10.444;2024-01-16T03:21:23;5.13;;;3.80;;
12024;SDS011;6073;53.230;10.444;2024-01-16T03:23:49;5.88;;;4.57;;
12024;SDS011;6073;53.230;10.444;2024-01-16T03:26:15;5.75;;;4.30;;
12024;SDS011;6073;53.230;10.444;2024-01-16T03:28:41;9.18;;;5.07;;
12024;SDS011;6073;53.230;10.444;2024-01-16T03:31:07;6.28;;;4.10;;
12024;SDS011;6073;53.230;10.444;2024-01-16T03:33:33;7.10;;;4.68;;
12024;SDS011;6073;53.230;10.444;2024-01-16T03:35:59;7.03;;;4.75;;
12024;SDS011;6073;53.230;10.444;2024-01-16T03:38:25;7.63;;;5.00;;
12024;SDS011;6073;53.230;10.444;2024-01-16T03:40:51;5.85;;;4.57;;
12024;SDS011;6073;53.230;10.444;2024-01-16T03:43:17;7.55;;;5.00;;
12024;SDS011;6073;53.230;10.444;2024-01-16T03:45:43;8.45;;;5.32;;
12024;SDS011;6073;53.230;10.444;2024-01-16T03:48:09;7.28;;;4.68;;
12024;SDS011;6073;53.230;10.444;2024-01-16T03:50:35;8.23;;;4.93;;
12024;SDS011;6073;53.230;10.444;2024-01-16T03:53:01;6.80;;;5.22;;
12024;SDS011;6073;53.230;10.444;2024-01-16T03:55:28;6.72;;;4.68;;
12024;SDS011;6073;53.230;10.444;2024-01-16T03:57:55;6.85;;;4.93;;
12024;SDS011;6073;53.230;10.444;2024-01-16T04:00:20;5.97;;;5.00;;
12024;SDS011;6073;53.230;10.444;2024-01-16T04:02:46;8.13;;;5.03;;
12024;SDS011;6073;53.230;10.444;2024-01-16T04:05:12;6.22;;;4.72;;
12024;SDS011;6073;53.230;10.444;2024-01-16T04:07:37;7.53;;;4.93;;
12024;SDS011;6073;53.230;10.444;2024-01-16T04:10:03;6.10;;;4.55;;
12024;SDS011;6073;53.230;10.444;2024-01-16T04:12:31;6.72;;;4.70;;
12024;SDS011;6073;53.230;10.444;2024-01-16T04:14:56;7.05;;;4.93;;
12024;SDS011;6073;53.230;10.444;2024-01-16T04:17:22;9.57;;;5.38;;
12024;SDS011;6073;53.230;10.444;2024-01-16T04:19:47;9.45;;;5.65;;
12024;SDS011;6073;53.230;10.444;2024-01-16T04:22:13;8.98;;;5.47;;
12024;SDS011;6073;53.230;10.444;2024-01-16T04:24:38;6.75;;;4.60;;
12024;SDS011;6073;53.230;10.444;2024-01-16T04:27:04;7.50;;;4.93;;
12024;SDS011;6073;53.230;10.444;2024-01-16T04:29:30;6.88;;;4.88;;
12024;SDS011;6073;53.230;10.444;2024-01-16T04:31:56;7.28;;;4.57;;
12024;SDS011;6073;53.230;10.444;2024-01-16T04:34:21;5.82;;;4.20;;
12024;SDS011;6073;53.230;10.444;2024-01-16T04:36:47;6.90;;;5.22;;
12024;SDS011;6073;53.230;10.444;2024-01-16T04:39:13;5.72;;;4.35;;
12024;SDS011;6073;53.230;10.444;2024-01-16T04:41:38;6.32;;;4.22;;
12024;SDS011;6073;53.230;10.444;2024-01-16T04:44:04;6.60;;;4.22;;
12024;SDS011;6073;53.230;10.444;2024-01-16T04:46:30;6.30;;;3.60;;
12024;SDS011;6073;53.230;10.444;2024-01-16T04:48:55;6.60;;;3.55;;
12024;SDS011;6073;53.230;10.444;2024-01-16T04:51:21;4.97;;;3.70;;
12024;SDS011;6073;53.230;10.444;2024-01-16T04:53:46;6.78;;;3.80;;
12024;SDS011;6073;53.230;10.444;2024-01-16T04:56:12;5.05;;;3.45;;
12024;SDS011;6073;53.230;10.444;2024-01-16T04:58:37;5.13;;;3.25;;
12024;SDS011;6073;53.230;10.444;2024-01-16T05:01:03;5.13;;;3.38;;
12024;SDS011;6073;53.230;10.444;2024-01-16T05:03:28;5.88;;;3.15;;
12024;SDS011;6073;53.230;10.444;2024-01-16T05:05:54;4.57;;;3.15;;
12024;SDS011;6073;53.230;10.444;2024-01-16T05:08:21;6.07;;;3.53;;
12024;SDS011;6073;53.230;10.444;2024-01-16T05:10:47;3.97;;;3.08;;
12024;SDS011;6073;53.230;10.444;2024-01-16T05:13:13;5.20;;;3.35;;
12024;SDS011;6073;53.230;10.444;2024-01-16T05:15:40;3.50;;;2.88;;
12024;SDS011;6073;53.230;10.444;2024-01-16T05:18:05;3.17;;;2.65;;
12024;SDS011;6073;53.230;10.444;2024-01-16T05:20:31;4.40;;;2.28;;
12024;SDS011;6073;53.230;10.444;2024-01-16T05:22:56;2.25;;;2.00;;
12024;SDS011;6073;53.230;10.444;2024-01-16T05:25:22;6.50;;;2.20;;
12024;SDS011;6073;53.230;10.444;2024-01-16T05:27:48;2.60;;;1.80;;
12024;SDS011;6073;53.230;10.444;2024-01-16T05:30:14;2.03;;;1.40;;
12024;SDS011;6073;53.230;10.444;2024-01-16T05:32:40;2.58;;;1.45;;
12024;SDS011;6073;53.230;10.444;2024-01-16T05:35:06;2.97;;;1.40;;
12024;SDS011;6073;53.230;10.444;2024-01-16T05:37:32;2.13;;;1.73;;
12024;SDS011;6073;53.230;10.444;2024-01-16T05:39:58;2.00;;;1.08;;
12024;SDS011;6073;53.230;10.444;2024-01-16T05:42:24;4.60;;;1.42;;
12024;SDS011;6073;53.230;10.444;2024-01-16T05:44:49;1.58;;;1.05;;
12024;SDS011;6073;53.230;10.444;2024-01-16T05:47:15;0.95;;;0.73;;
12024;SDS011;6073;53.230;10.444;2024-01-16T05:49:40;2.72;;;1.13;;
12024;SDS011;6073;53.230;10.444;2024-01-16T05:52:07;2.38;;;1.10;;
12024;SDS011;6073;53.230;10.444;2024-01-16T05:54:33;1.95;;;1.23;;
12024;SDS011;6073;53.230;10.444;2024-01-16T05:56:59;2.95;;;1.98;;
12024;SDS011;6073;53.230;10.444;2024-01-16T05:59:24;3.08;;;1.27;;
12024;SDS011;6073;53.230;10.444;2024-01-16T06:01:50;3.78;;;1.40;;
12024;SDS011;6073;53.230;10.444;2024-01-16T06:04:16;1.45;;;1.17;;
12024;SDS011;6073;53.230;10.444;2024-01-16T06:06:41;2.72;;;1.40;;
12024;SDS011;6073;53.230;10.444;2024-01-16T06:09:11;3.47;;;1.75;;
12024;SDS011;6073;53.230;10.444;2024-01-16T06:11:39;3.42;;;1.85;;
12024;SDS011;6073;53.230;10.444;2024-01-16T06:14:08;4.13;;;2.28;;
12024;SDS011;6073;53.230;10.444;2024-01-16T06:16:34;3.28;;;2.15;;
12024;SDS011;6073;53.230;10.444;2024-01-16T06:18:59;5.22;;;2.53;;
12024;SDS011;6073;53.230;10.444;2024-01-16T06:21:25;3.88;;;2.72;;
12024;SDS011;6073;53.230;10.444;2024-01-16T06:23:51;5.45;;;2.90;;
12024;SDS011;6073;53.230;10.444;2024-01-16T06:26:17;6.55;;;3.80;;
12024;SDS011;6073;53.230;10.444;2024-01-16T06:28:43;6.80;;;4.28;;
12024;SDS011;6073;53.230;10.444;2024-01-16T06:31:08;6.65;;;3.67;;
12024;SDS011;6073;53.230;10.444;2024-01-16T06:33:34;8.50;;;4.70;;
12024;SDS011;6073;53.230;10.444;2024-01-16T06:36:01;4.60;;;3.65;;
12024;SDS011;6073;53.230;10.444;2024-01-16T06:38:29;8.00;;;4.20;;
12024;SDS011;6073;53.230;10.444;2024-01-16T06:40:55;7.05;;;4.45;;
12024;SDS011;6073;53.230;10.444;2024-01-16T06:43:21;7.32;;;4.00;;
12024;SDS011;6073;53.230;10.444;2024-01-16T06:45:46;8.73;;;4.20;;
12024;SDS011;6073;53.230;10.444;2024-01-16T06:48:12;8.93;;;4.43;;
12024;SDS011;6073;53.230;10.444;2024-01-16T06:50:37;8.05;;;4.95;;
12024;SDS011;6073;53.230;10.444;2024-01-16T06:53:03;6.15;;;3.63;;
12024;SDS011;6073;53.230;10.444;2024-01-16T06:55:29;8.60;;;3.75;;
12024;SDS011;6073;53.230;10.444;2024-01-16T06:57:55;7.65;;;4.47;;
12024;SDS011;6073;53.230;10.444;2024-01-16T07:00:20;7.22;;;4.03;;
12024;SDS011;6073;53.230;10.444;2024-01-16T07:02:47;7.28;;;4.07;;
12024;SDS011;6073;53.230;10.444;2024-01-16T07:05:13;6.95;;;3.67;;
12024;SDS011;6073;53.230;10.444;2024-01-16T07:07:39;8.23;;;4.63;;
12024;SDS011;6073;53.230;10.444;2024-01-16T07:10:04;6.97;;;3.55;;
12024;SDS011;6073;53.230;10.444;2024-01-16T07:12:38;7.88;;;3.70;;
12024;SDS011;6073;53.230;10.444;2024-01-16T07:15:04;8.23;;;3.63;;
12024;SDS011;6073;53.230;10.444;2024-01-16T07:17:30;7.93;;;4.07;;
12024;SDS011;6073;53.230;10.444;2024-01-16T07:19:55;6.47;;;3.88;;
12024;SDS011;6073;53.230;10.444;2024-01-16T07:22:21;6.13;;;3.63;;
12024;SDS011;6073;53.230;10.444;2024-01-16T07:24:46;7.95;;;3.63;;
12024;SDS011;6073;53.230;10.444;2024-01-16T07:27:12;9.50;;;3.65;;
12024;SDS011;6073;53.230;10.444;2024-01-16T07:29:38;7.32;;;3.13;;
12024;SDS011;6073;53.230;10.444;2024-01-16T07:32:04;8.18;;;3.20;;
12024;SDS011;6073;53.230;10.444;2024-01-16T07:34:30;10.52;;;3.97;;
12024;SDS011;6073;53.230;10.444;2024-01-16T07:36:55;6.50;;;3.03;;
12024;SDS011;6073;53.230;10.444;2024-01-16T07:39:21;4.60;;;3.25;;
12024;SDS011;6073;53.230;10.444;2024-01-16T07:41:47;5.95;;;3.15;;
12024;SDS011;6073;53.230;10.444;2024-01-16T07:44:13;5.32;;;2.83;;
12024;SDS011;6073;53.230;10.444;2024-01-16T07:46:39;4.97;;;2.58;;
12024;SDS011;6073;53.230;10.444;2024-01-16T07:49:04;7.80;;;3.40;;
12024;SDS011;6073;53.230;10.444;2024-01-16T07:51:30;4.35;;;2.75;;
12024;SDS011;6073;53.230;10.444;2024-01-16T07:54:06;6.03;;;2.72;;
12024;SDS011;6073;53.230;10.444;2024-01-16T07:56:33;5.22;;;2.90;;
12024;SDS011;6073;53.230;10.444;2024-01-16T07:58:59;3.78;;;2.60;;
12024;SDS011;6073;53.230;10.444;2024-01-16T08:01:26;5.85;;;2.92;;
12024;SDS011;6073;53.230;10.444;2024-01-16T08:03:52;6.22;;;2.90;;
12024;SDS011;6073;53.230;10.444;2024-01-16T08:06:17;6.25;;;2.53;;
12024;SDS011;6073;53.230;10.444;2024-01-16T08:08:43;5.30;;;2.80;;
12024;SDS011;6073;53.230;10.444;2024-01-16T08:11:08;2.92;;;2.38;;
12024;SDS011;6073;53.230;10.444;2024-01-16T08:13:34;4.78;;;2.67;;
12024;SDS011;6073;53.230;10.444;2024-01-16T08:15:59;4.75;;;2.30;;
12024;SDS011;6073;53.230;10.444;2024-01-16T08:18:25;4.10;;;2.15;;
12024;SDS011;6073;53.230;10.444;2024-01-16T08:20:51;2.92;;;1.90;;
12024;SDS011;6073;53.230;10.444;2024-01-16T08:23:17;8.05;;;2.10;;
12024;SDS011;6073;53.230;10.444;2024-01-16T08:25:42;5.00;;;1.90;;
12024;SDS011;6073;53.230;10.444;2024-01-16T08:28:08;6.70;;;2.45;;
12024;SDS011;6073;53.230;10.444;2024-01-16T08:30:34;5.82;;;2.22;;
12024;SDS011;6073;53.230;10.444;2024-01-16T08:32:59;3.58;;;2.45;;
12024;SDS011;6073;53.230;10.444;2024-01-16T08:35:25;6.43;;;2.08;;
12024;SDS011;6073;53.230;10.444;2024-01-16T08:37:50;6.82;;;3.35;;
12024;SDS011;6073;53.230;10.444;2024-01-16T08:40:16;2.53;;;1.83;;
12024;SDS011;6073;53.230;10.444;2024-01-16T08:42:42;5.95;;;2.35;;
12024;SDS011;6073;53.230;10.444;2024-01-16T08:45:08;4.45;;;2.10;;
12024;SDS011;6073;53.230;10.444;2024-01-16T08:47:34;4.30;;;2.08;;
12024;SDS011;6073;53.230;10.444;2024-01-16T08:49:59;3.58;;;2.00;;
12024;SDS011;6073;53.230;10.444;2024-01-16T08:52:25;5.13;;;1.90;;
12024;SDS011;6073;53.230;10.444;2024-01-16T08:54:50;4.28;;;2.00;;
12024;SDS011;6073;53.230;10.444;2024-01-16T08:57:16;5.40;;;2.03;;
12024;SDS011;6073;53.230;10.444;2024-01-16T08:59:41;3.03;;;1.65;;
12024;SDS011;6073;53.230;10.444;2024-01-16T09:02:07;6.80;;;2.30;;
12024;SDS011;6073;53.230;10.444;2024-01-16T09:04:33;6.13;;;1.92;;
12024;SDS011;6073;53.230;10.444;2024-01-16T09:06:59;3.38;;;2.00;;
12024;SDS011;6073;53.230;10.444;2024-01-16T09:09:25;5.13;;;2.10;;
12024;SDS011;6073;53.230;10.444;2024-01-16T09:11:50;6.45;;;2.90;;
12024;SDS011;6073;53.230;10.444;2024-01-16T09:14:16;6.32;;;3.78;;
12024;SDS011;6073;53.230;10.444;2024-01-16T09:16:41;9.55;;;2.53;;
12024;SDS011;6073;53.230;10.444;2024-01-16T09:19:07;7.70;;;2.55;;
12024;SDS011;6073;53.230;10.444;2024-01-16T09:21:34;9.07;;;3.17;;
12024;SDS011;6073;53.230;10.444;2024-01-16T09:24:00;7.38;;;2.72;;
12024;SDS011;6073;53.230;10.444;2024-01-16T09:26:26;7.47;;;2.42;;
12024;SDS011;6073;53.230;10.444;2024-01-16T09:28:51;4.50;;;2.35;;
12024;SDS011;6073;53.230;10.444;2024-01-16T09:31:17;7.63;;;2.47;;
12024;SDS011;6073;53.230;10.444;2024-01-16T09:33:42;6.25;;;2.20;;
12024;SDS011;6073;53.230;10.444;2024-01-16T09:36:08;3.35;;;1.90;;
12024;SDS011;6073;53.230;10.444;2024-01-16T09:38:34;7.22;;;2.58;;
12024;SDS011;6073;53.230;10.444;2024-01-16T09:40:59;5.13;;;2.58;;
12024;SDS011;6073;53.230;10.444;2024-01-16T09:43:26;5.95;;;2.10;;
12024;SDS011;6073;53.230;10.444;2024-01-16T09:45:52;4.68;;;2.88;;
12024;SDS011;6073;53.230;10.444;2024-01-16T09:48:20;6.95;;;2.88;;
12024;SDS011;6073;53.230;10.444;2024-01-16T09:50:46;3.60;;;2.63;;
12024;SDS011;6073;53.230;10.444;2024-01-16T09:53:12;5.22;;;2.63;;
12024;SDS011;6073;53.230;10.444;2024-01-16T09:55:38;3.58;;;2.25;;
12024;SDS011;6073;53.230;10.444;2024-01-16T09:58:03;3.40;;;2.50;;
12024;SDS011;6073;53.230;10.444;2024-01-16T10:00:32;2.97;;;2.00;;
12024;SDS011;6073;53.230;10.444;2024-01-16T10:02:58;4.35;;;2.08;;
12024;SDS011;6073;53.230;10.444;2024-01-16T10:05:25;5.05;;;2.20;;
12024;SDS011;6073;53.230;10.444;2024-01-16T10:07:51;4.60;;;2.35;;
12024;SDS011;6073;53.230;10.444;2024-01-16T10:10:17;2.75;;;2.03;;
12024;SDS011;6073;53.230;10.444;2024-01-16T10:12:43;3.65;;;2.42;;
12024;SDS011;6073;53.230;10.444;2024-01-16T10:15:09;4.47;;;2.17;;
12024;SDS011;6073;53.230;10.444;2024-01-16T10:17:36;3.03;;;1.85;;
12024;SDS011;6073;53.230;10.444;2024-01-16T10:20:03;4.03;;;2.25;;
12024;SDS011;6073;53.230;10.444;2024-01-16T10:22:29;5.88;;;2.22;;
12024;SDS011;6073;53.230;10.444;2024-01-16T10:27:38;3.22;;;2.13;;
12024;SDS011;6073;53.230;10.444;2024-01-16T10:30:05;2.85;;;2.08;;
12024;SDS011;6073;53.230;10.444;2024-01-16T10:32:39;3.70;;;2.42;;
12024;SDS011;6073;53.230;10.444;2024-01-16T10:35:09;4.38;;;2.22;;
12024;SDS011;6073;53.230;10.444;2024-01-16T10:37:49;4.50;;;2.03;;
12024;SDS011;6073;53.230;10.444;2024-01-16T10:40:19;3.58;;;1.60;;
12024;SDS011;6073;53.230;10.444;2024-01-16T10:42:46;8.05;;;2.88;;
12024;SDS011;6073;53.230;10.444;2024-01-16T10:45:22;2.20;;;1.85;;
12024;SDS011;6073;53.230;10.444;2024-01-16T10:47:48;5.22;;;2.50;;
12024;SDS011;6073;53.230;10.444;2024-01-16T10:50:25;4.05;;;1.90;;
12024;SDS011;6073;53.230;10.444;2024-01-16T10:52:50;2.35;;;1.60;;
12024;SDS011;6073;53.230;10.444;2024-01-16T10:55:20;3.72;;;1.98;;
12024;SDS011;6073;53.230;10.444;2024-01-16T10:57:47;7.03;;;1.80;;
12024;SDS011;6073;53.230;10.444;2024-01-16T11:00:18;2.20;;;1.80;;
12024;SDS011;6073;53.230;10.444;2024-01-16T11:03:28;3.80;;;2.08;;
12024;SDS011;6073;53.230;10.444;2024-01-16T11:05:36;5.57;;;2.30;;
12024;SDS011;6073;53.230;10.444;2024-01-16T11:08:02;4.72;;;2.13;;
12024;SDS011;6073;53.230;10.444;2024-01-16T11:10:30;4.50;;;1.75;;
12024;SDS011;6073;53.230;10.444;2024-01-16T11:12:59;3.40;;;2.25;;
12024;SDS011;6073;53.230;10.444;2024-01-16T11:15:25;3.60;;;2.00;;
12024;SDS011;6073;53.230;10.444;2024-01-16T11:17:53;4.53;;;2.42;;
12024;SDS011;6073;53.230;10.444;2024-01-16T11:20:20;4.88;;;2.05;;
12024;SDS011;6073;53.230;10.444;2024-01-16T11:22:47;4.13;;;2.00;;
12024;SDS011;6073;53.230;10.444;2024-01-16T11:25:14;5.38;;;2.88;;
12024;SDS011;6073;53.230;10.444;2024-01-16T11:27:41;5.15;;;2.25;;
12024;SDS011;6073;53.230;10.444;2024-01-16T11:30:09;3.63;;;2.35;;
12024;SDS011;6073;53.230;10.444;2024-01-16T11:32:37;3.78;;;2.97;;
12024;SDS011;6073;53.230;10.444;2024-01-16T11:35:05;3.15;;;1.88;;
12024;SDS011;6073;53.230;10.444;2024-01-16T11:37:34;5.38;;;2.47;;
12024;SDS011;6073;53.230;10.444;2024-01-16T11:42:50;4.35;;;2.17;;
12024;SDS011;6073;53.230;10.444;2024-01-16T11:48:26;4.75;;;2.53;;
12024;SDS011;6073;53.230;10.444;2024-01-16T11:50:45;5.30;;;2.50;;
12024;SDS011;6073;53.230;10.444;2024-01-16T11:53:10;3.75;;;2.58;;
12024;SDS011;6073;53.230;10.444;2024-01-16T12:01:33;7.38;;;2.78;;
12024;SDS011;6073;53.230;10.444;2024-01-16T12:04:07;5.50;;;2.92;;
12024;SDS011;6073;53.230;10.444;2024-01-16T12:06:35;6.40;;;2.90;;
12024;SDS011;6073;53.230;10.444;2024-01-16T12:09:13;5.30;;;2.80;;
12024;SDS011;6073;53.230;10.444;2024-01-16T12:11:40;5.20;;;2.40;;
12024;SDS011;6073;53.230;10.444;2024-01-16T12:14:08;5.35;;;2.92;;
12024;SDS011;6073;53.230;10.444;2024-01-16T12:16:34;7.50;;;3.03;;
12024;SDS011;6073;53.230;10.444;2024-01-16T12:21:38;6.13;;;2.65;;
12024;SDS011;6073;53.230;10.444;2024-01-16T12:24:05;6.57;;;2.63;;
12024;SDS011;6073;53.230;10.444;2024-01-16T12:26:31;6.47;;;3.78;;
12024;SDS011;6073;53.230;10.444;2024-01-16T12:28:57;6.68;;;2.63;;
12024;SDS011;6073;53.230;10.444;2024-01-16T12:31:23;8.02;;;2.90;;
12024;SDS011;6073;53.230;10.444;2024-01-16T12:33:49;5.35;;;3.13;;
12024;SDS011;6073;53.230;10.444;2024-01-16T12:36:16;4.10;;;2.60;;
12024;SDS011;6073;53.230;10.444;2024-01-16T12:38:42;4.40;;;2.92;;
12024;SDS011;6073;53.230;10.444;2024-01-16T12:41:08;5.60;;;3.78;;
12024;SDS011;6073;53.230;10.444;2024-01-16T12:43:35;10.35;;;3.38;;
12024;SDS011;6073;53.230;10.444;2024-01-16T12:46:02;8.77;;;3.47;;
12024;SDS011;6073;53.230;10.444;2024-01-16T12:48:27;7.03;;;2.70;;
12024;SDS011;6073;53.230;10.444;2024-01-16T12:51:00;8.95;;;3.55;;
12024;SDS011;6073;53.230;10.444;2024-01-16T12:53:27;6.13;;;3.42;;
12024;SDS011;6073;53.230;10.444;2024-01-16T12:55:59;8.10;;;3.55;;
12024;SDS011;6073;53.230;10.444;2024-01-16T12:58:33;4.97;;;3.17;;
12024;SDS011;6073;53.230;10.444;2024-01-16T13:03:46;5.50;;;3.00;;
12024;SDS011;6073;53.230;10.444;2024-01-16T13:06:16;4.90;;;3.33;;
12024;SDS011;6073;53.230;10.444;2024-01-16T13:08:42;7.40;;;3.50;;
12024;SDS011;6073;53.230;10.444;2024-01-16T13:11:08;7.63;;;3.30;;
12024;SDS011;6073;53.230;10.444;2024-01-16T13:13:35;4.70;;;3.30;;
12024;SDS011;6073;53.230;10.444;2024-01-16T13:16:01;8.57;;;3.50;;
12024;SDS011;6073;53.230;10.444;2024-01-16T13:18:30;5.25;;;3.65;;
12024;SDS011;6073;53.230;10.444;2024-01-16T13:20:56;7.20;;;3.33;;
12024;SDS011;6073;53.230;10.444;2024-01-16T13:23:24;9.48;;;3.58;;
12024;SDS011;6073;53.230;10.444;2024-01-16T13:25:51;5.97;;;3.00;;
12024;SDS011;6073;53.230;10.444;2024-01-16T13:28:17;7.50;;;3.75;;
12024;SDS011;6073;53.230;10.444;2024-01-16T13:30:44;5.05;;;3.38;;
12024;SDS011;6073;53.230;10.444;2024-01-16T13:33:11;7.55;;;4.05;;
12024;SDS011;6073;53.230;10.444;2024-01-16T13:35:39;6.68;;;3.15;;
12024;SDS011;6073;53.230;10.444;2024-01-16T13:38:06;6.72;;;3.20;;
12024;SDS011;6073;53.230;10.444;2024-01-16T13:40:33;6.88;;;3.67;;
12024;SDS011;6073;53.230;10.444;2024-01-16T13:42:59;7.40;;;3.72;;
12024;SDS011;6073;53.230;10.444;2024-01-16T13:45:25;3.78;;;3.22;;
12024;SDS011;6073;53.230;10.444;2024-01-16T13:47:51;5.97;;;2.80;;
12024;SDS011;6073;53.230;10.444;2024-01-16T13:50:17;6.28;;;3.25;;
12024;SDS011;6073;53.230;10.444;2024-01-16T13:52:42;6.07;;;3.42;;
12024;SDS011;6073;53.230;10.444;2024-01-16T13:55:08;3.78;;;2.95;;
12024;SDS011;6073;53.230;10.444;2024-01-16T13:57:34;6.80;;;3.50;;
12024;SDS011;6073;53.230;10.444;2024-01-16T14:00:04;6.15;;;2.75;;
12024;SDS011;6073;53.230;10.444;2024-01-16T14:02:32;6.80;;;3.78;;
12024;SDS011;6073;53.230;10.444;2024-01-16T14:05:02;5.07;;;3.70;;
12024;SDS011;6073;53.230;10.444;2024-01-16T14:07:30;5.97;;;3.35;;
12024;SDS011;6073;53.230;10.444;2024-01-16T14:09:56;8.80;;;3.28;;
12024;SDS011;6073;53.230;10.444;2024-01-16T14:12:21;8.52;;;3.08;;
12024;SDS011;6073;53.230;10.444;2024-01-16T14:14:48;9.20;;;4.03;;
12024;SDS011;6073;53.230;10.444;2024-01-16T14:17:13;5.70;;;3.55;;
12024;SDS011;6073;53.230;10.444;2024-01-16T14:19:39;10.20;;;4.95;;
12024;SDS011;6073;53.230;10.444;2024-01-16T14:22:05;6.05;;;3.90;;
12024;SDS011;6073;53.230;10.444;2024-01-16T14:24:31;7.97;;;3.80;;
12024;SDS011;6073;53.230;10.444;2024-01-16T14:26:56;10.48;;;6.13;;
12024;SDS011;6073;53.230;10.444;2024-01-16T14:29:22;8.80;;;4.53;;
12024;SDS011;6073;53.230;10.444;2024-01-16T14:31:48;9.07;;;3.90;;
12024;SDS011;6073;53.230;10.444;2024-01-16T14:34:14;6.97;;;3.75;;
12024;SDS011;6073;53.230;10.444;2024-01-16T14:36:40;9.05;;;4.25;;
12024;SDS011;6073;53.230;10.444;2024-01-16T14:39:06;7.63;;;3.85;;
12024;SDS011;6073;53.230;10.444;2024-01-16T14:41:38;7.93;;;4.28;;
12024;SDS011;6073;53.230;10.444;2024-01-16T14:44:04;6.57;;;4.13;;
12024;SDS011;6073;53.230;10.444;2024-01-16T14:46:30;6.78;;;4.15;;
12024;SDS011;6073;53.230;10.444;2024-01-16T14:48:58;8.63;;;3.95;;
12024;SDS011;6073;53.230;10.444;2024-01-16T14:51:23;7.10;;;3.75;;
12024;SDS011;6073;53.230;10.444;2024-01-16T14:53:49;11.55;;;4.25;;
12024;SDS011;6073;53.230;10.444;2024-01-16T14:56:14;5.18;;;4.32;;
12024;SDS011;6073;53.230;10.444;2024-01-16T14:58:40;7.75;;;3.47;;
12024;SDS011;6073;53.230;10.444;2024-01-16T15:01:05;8.38;;;3.60;;
12024;SDS011;6073;53.230;10.444;2024-01-16T15:03:32;4.30;;;3.40;;
12024;SDS011;6073;53.230;10.444;2024-01-16T15:05:57;5.93;;;3.58;;